sensor_id;sensor_type;location;lat;lon;timestamp;P1;durP1;ratioP1;P2;durP2;ratioP2
39032;SDS011;24794;51.982;5.878;2022-11-04T00:00:31;7.85;;;4.57;;
39032;SDS011;24794;51.982;5.878;2022-11-04T00:01:32;6.68;;;4.65;;
39032;SDS011;24794;51.982;5.878;2022-11-04T00:02:33;6.95;;;4.80;;
39032;SDS011;24794;51.982;5.878;2022-11-04T00:03:33;9.13;;;4.60;;
39032;SDS011;24794;51.982;5.878;2022-11-04T00:04:34;7.47;;;5.22;;
39032;SDS011;24794;51.982;5.878;2022-11-04T00:05:35;10.80;;;6.80;;
39032;SDS011;24794;51.982;5.878;2022-11-04T00:06:36;10.85;;;7.35;;
39032;SDS011;24794;51.982;5.878;2022-11-04T00:07:37;8.55;;;6.28;;
39032;SDS011;24794;51.982;5.878;2022-11-04T00:08:57;8.38;;;6.32;;
39032;SDS011;24794;51.982;5.878;2022-11-04T00:09:58;10.65;;;8.15;;
39032;SDS011;24794;51.982;5.878;2022-11-04T00:10:59;13.48;;;7.53;;
39032;SDS011;24794;51.982;5.878;2022-11-04T00:12:18;12.02;;;8.60;;
39032;SDS011;24794;51.982;5.878;2022-11-04T00:13:27;11.82;;;7.55;;
39032;SDS011;24794;51.982;5.878;2022-11-04T00:14:28;12.20;;;7.07;;
39032;SDS011;24794;51.982;5.878;2022-11-04T00:15:29;10.15;;;6.90;;
39032;SDS011;24794;51.982;5.878;2022-11-04T00:16:53;10.30;;;7.25;;
39032;SDS011;24794;51.982;5.878;2022-11-04T00:18:12;10.23;;;7.72;;
39032;SDS011;24794;51.982;5.878;2022-11-04T00:19:12;14.02;;;7.97;;
39032;SDS011;24794;51.982;5.878;2022-11-04T00:20:13;10.43;;;7.80;;
39032;SDS011;24794;51.982;5.878;2022-11-04T00:21:32;10.95;;;7.82;;
39032;SDS011;24794;51.982;5.878;2022-11-04T00:22:52;8.93;;;7.03;;
39032;SDS011;24794;51.982;5.878;2022-11-04T00:24:11;12.85;;;7.72;;
39032;SDS011;24794;51.982;5.878;2022-11-04T00:25:31;12.48;;;8.10;;
39032;SDS011;24794;51.982;5.878;2022-11-04T00:26:50;13.63;;;9.55;;
39032;SDS011;24794;51.982;5.878;2022-11-04T00:28:10;14.00;;;9.27;;
39032;SDS011;24794;51.982;5.878;2022-11-04T00:29:34;12.45;;;9.30;;
39032;SDS011;24794;51.982;5.878;2022-11-04T00:30:35;14.10;;;10.70;;
39032;SDS011;24794;51.982;5.878;2022-11-04T00:31:35;13.18;;;9.77;;
39032;SDS011;24794;51.982;5.878;2022-11-04T00:32:59;15.07;;;10.05;;
39032;SDS011;24794;51.982;5.878;2022-11-04T00:34:18;17.60;;;11.48;;
39032;SDS011;24794;51.982;5.878;2022-11-04T00:35:19;12.88;;;9.98;;
39032;SDS011;24794;51.982;5.878;2022-11-04T00:36:21;18.52;;;13.45;;
39032;SDS011;24794;51.982;5.878;2022-11-04T00:37:23;20.88;;;15.35;;
39032;SDS011;24794;51.982;5.878;2022-11-04T00:38:23;19.35;;;14.93;;
39032;SDS011;24794;51.982;5.878;2022-11-04T00:39:25;18.98;;;15.35;;
39032;SDS011;24794;51.982;5.878;2022-11-04T00:40:25;20.48;;;15.23;;
39032;SDS011;24794;51.982;5.878;2022-11-04T00:41:26;21.20;;;17.00;;
39032;SDS011;24794;51.982;5.878;2022-11-04T00:42:26;20.15;;;15.20;;
39032;SDS011;24794;51.982;5.878;2022-11-04T00:43:27;21.33;;;15.65;;
39032;SDS011;24794;51.982;5.878;2022-11-04T00:44:27;21.92;;;15.80;;
39032;SDS011;24794;51.982;5.878;2022-11-04T00:45:28;21.08;;;15.82;;
39032;SDS011;24794;51.982;5.878;2022-11-04T00:46:30;22.40;;;17.10;;
39032;SDS011;24794;51.982;5.878;2022-11-04T00:47:32;22.02;;;16.50;;
39032;SDS011;24794;51.982;5.878;2022-11-04T00:48:32;20.48;;;17.42;;
39032;SDS011;24794;51.982;5.878;2022-11-04T00:49:33;21.98;;;17.17;;
39032;SDS011;24794;51.982;5.878;2022-11-04T00:50:33;17.70;;;14.95;;
39032;SDS011;24794;51.982;5.878;2022-11-04T00:51:34;18.25;;;14.05;;
39032;SDS011;24794;51.982;5.878;2022-11-04T00:52:35;18.23;;;14.57;;
39032;SDS011;24794;51.982;5.878;2022-11-04T00:53:35;18.20;;;14.45;;
39032;SDS011;24794;51.982;5.878;2022-11-04T00:54:36;19.38;;;12.65;;
39032;SDS011;24794;51.982;5.878;2022-11-04T00:55:36;13.50;;;11.20;;
39032;SDS011;24794;51.982;5.878;2022-11-04T00:56:37;14.45;;;10.38;;
39032;SDS011;24794;51.982;5.878;2022-11-04T00:57:38;12.40;;;9.32;;
39032;SDS011;24794;51.982;5.878;2022-11-04T00:58:39;10.73;;;8.82;;
39032;SDS011;24794;51.982;5.878;2022-11-04T00:59:39;9.80;;;8.30;;
39032;SDS011;24794;51.982;5.878;2022-11-04T01:00:40;9.10;;;6.90;;
39032;SDS011;24794;51.982;5.878;2022-11-04T01:01:41;8.55;;;6.47;;
39032;SDS011;24794;51.982;5.878;2022-11-04T01:02:41;6.55;;;5.82;;
39032;SDS011;24794;51.982;5.878;2022-11-04T01:03:46;8.38;;;5.50;;
39032;SDS011;24794;51.982;5.878;2022-11-04T01:04:48;8.75;;;5.15;;
39032;SDS011;24794;51.982;5.878;2022-11-04T01:05:48;6.40;;;4.78;;
39032;SDS011;24794;51.982;5.878;2022-11-04T01:06:49;4.75;;;4.13;;
39032;SDS011;24794;51.982;5.878;2022-11-04T01:07:50;5.70;;;4.35;;
39032;SDS011;24794;51.982;5.878;2022-11-04T01:08:56;5.43;;;3.90;;
39032;SDS011;24794;51.982;5.878;2022-11-04T01:09:59;5.90;;;3.60;;
39032;SDS011;24794;51.982;5.878;2022-11-04T01:11:00;5.10;;;3.92;;
39032;SDS011;24794;51.982;5.878;2022-11-04T01:12:04;5.07;;;3.50;;
39032;SDS011;24794;51.982;5.878;2022-11-04T01:13:04;5.68;;;3.47;;
39032;SDS011;24794;51.982;5.878;2022-11-04T01:14:05;5.53;;;3.30;;
39032;SDS011;24794;51.982;5.878;2022-11-04T01:15:06;3.83;;;2.90;;
39032;SDS011;24794;51.982;5.878;2022-11-04T01:16:08;3.85;;;2.90;;
39032;SDS011;24794;51.982;5.878;2022-11-04T01:17:10;5.10;;;2.90;;
39032;SDS011;24794;51.982;5.878;2022-11-04T01:18:10;3.72;;;2.53;;
39032;SDS011;24794;51.982;5.878;2022-11-04T01:19:11;4.07;;;2.65;;
39032;SDS011;24794;51.982;5.878;2022-11-04T01:20:11;3.85;;;2.30;;
39032;SDS011;24794;51.982;5.878;2022-11-04T01:21:13;2.78;;;1.95;;
39032;SDS011;24794;51.982;5.878;2022-11-04T01:22:14;1.90;;;1.77;;
39032;SDS011;24794;51.982;5.878;2022-11-04T01:23:15;1.83;;;1.60;;
39032;SDS011;24794;51.982;5.878;2022-11-04T01:24:16;3.83;;;1.70;;
39032;SDS011;24794;51.982;5.878;2022-11-04T01:25:16;2.40;;;1.70;;
39032;SDS011;24794;51.982;5.878;2022-11-04T01:26:19;3.60;;;1.70;;
39032;SDS011;24794;51.982;5.878;2022-11-04T01:27:21;1.95;;;1.35;;
39032;SDS011;24794;51.982;5.878;2022-11-04T01:28:21;2.47;;;1.38;;
39032;SDS011;24794;51.982;5.878;2022-11-04T01:29:22;2.58;;;1.20;;
39032;SDS011;24794;51.982;5.878;2022-11-04T01:30:22;4.13;;;1.35;;
39032;SDS011;24794;51.982;5.878;2022-11-04T01:31:26;1.13;;;0.93;;
39032;SDS011;24794;51.982;5.878;2022-11-04T01:32:28;3.17;;;1.30;;
39032;SDS011;24794;51.982;5.878;2022-11-04T01:33:28;1.73;;;0.88;;
39032;SDS011;24794;51.982;5.878;2022-11-04T01:34:29;3.45;;;1.08;;
39032;SDS011;24794;51.982;5.878;2022-11-04T01:35:30;2.65;;;1.20;;
39032;SDS011;24794;51.982;5.878;2022-11-04T01:36:31;2.47;;;1.20;;
39032;SDS011;24794;51.982;5.878;2022-11-04T01:37:32;3.55;;;1.17;;
39032;SDS011;24794;51.982;5.878;2022-11-04T01:38:32;2.63;;;1.20;;
39032;SDS011;24794;51.982;5.878;2022-11-04T01:39:33;2.33;;;1.10;;
39032;SDS011;24794;51.982;5.878;2022-11-04T01:40:37;1.77;;;1.20;;
39032;SDS011;24794;51.982;5.878;2022-11-04T01:41:40;1.60;;;1.05;;
39032;SDS011;24794;51.982;5.878;2022-11-04T01:42:40;3.50;;;1.30;;
39032;SDS011;24794;51.982;5.878;2022-11-04T01:43:48;3.33;;;1.25;;
39032;SDS011;24794;51.982;5.878;2022-11-04T01:44:56;1.92;;;1.45;;
39032;SDS011;24794;51.982;5.878;2022-11-04T01:45:58;4.28;;;1.40;;
39032;SDS011;24794;51.982;5.878;2022-11-04T01:47:01;1.80;;;1.55;;
39032;SDS011;24794;51.982;5.878;2022-11-04T01:48:11;5.38;;;2.28;;
39032;SDS011;24794;51.982;5.878;2022-11-04T01:50:31;2.20;;;1.92;;
39032;SDS011;24794;51.982;5.878;2022-11-04T01:51:33;2.75;;;1.92;;
39032;SDS011;24794;51.982;5.878;2022-11-04T01:52:44;3.67;;;2.20;;
39032;SDS011;24794;51.982;5.878;2022-11-04T01:53:51;6.00;;;2.60;;
39032;SDS011;24794;51.982;5.878;2022-11-04T01:54:56;5.35;;;3.03;;
39032;SDS011;24794;51.982;5.878;2022-11-04T01:56:01;3.05;;;2.75;;
39032;SDS011;24794;51.982;5.878;2022-11-04T01:57:12;4.28;;;3.25;;
39032;SDS011;24794;51.982;5.878;2022-11-04T01:58:25;5.70;;;3.42;;
39032;SDS011;24794;51.982;5.878;2022-11-04T01:59:29;3.85;;;3.30;;
39032;SDS011;24794;51.982;5.878;2022-11-04T02:00:38;4.82;;;3.13;;
39032;SDS011;24794;51.982;5.878;2022-11-04T02:01:41;4.10;;;3.00;;
39032;SDS011;24794;51.982;5.878;2022-11-04T02:02:48;5.82;;;3.60;;
39032;SDS011;24794;51.982;5.878;2022-11-04T02:03:53;4.55;;;3.35;;
39032;SDS011;24794;51.982;5.878;2022-11-04T02:05:16;6.65;;;4.78;;
39032;SDS011;24794;51.982;5.878;2022-11-04T02:06:18;8.85;;;5.50;;
39032;SDS011;24794;51.982;5.878;2022-11-04T02:07:20;7.57;;;5.28;;
39032;SDS011;24794;51.982;5.878;2022-11-04T02:08:21;7.38;;;5.50;;
39032;SDS011;24794;51.982;5.878;2022-11-04T02:09:22;9.43;;;7.03;;
39032;SDS011;24794;51.982;5.878;2022-11-04T02:10:27;12.82;;;7.78;;
39032;SDS011;24794;51.982;5.878;2022-11-04T02:11:29;10.50;;;7.68;;
39032;SDS011;24794;51.982;5.878;2022-11-04T02:12:48;11.95;;;8.88;;
39032;SDS011;24794;51.982;5.878;2022-11-04T02:13:49;14.95;;;8.88;;
39032;SDS011;24794;51.982;5.878;2022-11-04T02:14:50;14.75;;;10.90;;
39032;SDS011;24794;51.982;5.878;2022-11-04T02:18:26;20.02;;;14.98;;
39032;SDS011;24794;51.982;5.878;2022-11-04T02:27:06;19.27;;;15.00;;
39032;SDS011;24794;51.982;5.878;2022-11-04T02:28:37;23.50;;;17.13;;
39032;SDS011;24794;51.982;5.878;2022-11-04T02:31:01;20.75;;;16.15;;
39032;SDS011;24794;51.982;5.878;2022-11-04T02:33:45;22.85;;;18.17;;
39032;SDS011;24794;51.982;5.878;2022-11-04T02:36:09;26.50;;;18.38;;
39032;SDS011;24794;51.982;5.878;2022-11-04T02:37:27;24.38;;;18.30;;
39032;SDS011;24794;51.982;5.878;2022-11-04T02:38:42;26.00;;;19.40;;
39032;SDS011;24794;51.982;5.878;2022-11-04T02:41:03;22.67;;;18.27;;
39032;SDS011;24794;51.982;5.878;2022-11-04T02:42:18;27.40;;;20.70;;
39032;SDS011;24794;51.982;5.878;2022-11-04T02:45:15;27.27;;;19.00;;
39032;SDS011;24794;51.982;5.878;2022-11-04T02:47:32;28.48;;;22.63;;
39032;SDS011;24794;51.982;5.878;2022-11-04T02:48:38;29.98;;;22.42;;
39032;SDS011;24794;51.982;5.878;2022-11-04T02:49:59;26.38;;;21.10;;
39032;SDS011;24794;51.982;5.878;2022-11-04T02:52:28;27.27;;;21.77;;
39032;SDS011;24794;51.982;5.878;2022-11-04T02:53:40;31.70;;;23.35;;
39032;SDS011;24794;51.982;5.878;2022-11-04T02:54:59;32.05;;;23.10;;
39032;SDS011;24794;51.982;5.878;2022-11-04T02:56:06;28.33;;;21.77;;
39032;SDS011;24794;51.982;5.878;2022-11-04T02:57:11;28.30;;;22.05;;
39032;SDS011;24794;51.982;5.878;2022-11-04T02:58:17;24.70;;;20.15;;
39032;SDS011;24794;51.982;5.878;2022-11-04T02:59:30;29.38;;;21.25;;
39032;SDS011;24794;51.982;5.878;2022-11-04T03:00:40;25.67;;;21.30;;
39032;SDS011;24794;51.982;5.878;2022-11-04T03:01:42;25.35;;;20.15;;
39032;SDS011;24794;51.982;5.878;2022-11-04T03:02:47;24.50;;;20.33;;
39032;SDS011;24794;51.982;5.878;2022-11-04T03:03:59;26.85;;;20.48;;
39032;SDS011;24794;51.982;5.878;2022-11-04T03:05:05;25.75;;;19.58;;
39032;SDS011;24794;51.982;5.878;2022-11-04T03:06:10;25.50;;;20.50;;
39032;SDS011;24794;51.982;5.878;2022-11-04T03:07:14;25.33;;;20.55;;
39032;SDS011;24794;51.982;5.878;2022-11-04T03:08:20;27.08;;;22.00;;
39032;SDS011;24794;51.982;5.878;2022-11-04T03:09:34;25.75;;;21.65;;
39032;SDS011;24794;51.982;5.878;2022-11-04T03:10:38;27.60;;;21.25;;
39032;SDS011;24794;51.982;5.878;2022-11-04T03:11:43;26.10;;;20.90;;
39032;SDS011;24794;51.982;5.878;2022-11-04T03:12:49;29.48;;;22.52;;
39032;SDS011;24794;51.982;5.878;2022-11-04T03:15:31;26.65;;;20.80;;
39032;SDS011;24794;51.982;5.878;2022-11-04T03:16:38;27.15;;;21.40;;
39032;SDS011;24794;51.982;5.878;2022-11-04T03:17:46;27.92;;;20.92;;
39032;SDS011;24794;51.982;5.878;2022-11-04T03:19:58;30.63;;;23.42;;
39032;SDS011;24794;51.982;5.878;2022-11-04T03:21:00;29.65;;;22.00;;
39032;SDS011;24794;51.982;5.878;2022-11-04T03:22:06;28.33;;;22.13;;
39032;SDS011;24794;51.982;5.878;2022-11-04T03:23:11;28.48;;;22.15;;
39032;SDS011;24794;51.982;5.878;2022-11-04T03:24:12;28.13;;;22.35;;
39032;SDS011;24794;51.982;5.878;2022-11-04T03:25:13;26.15;;;21.52;;
39032;SDS011;24794;51.982;5.878;2022-11-04T03:26:38;28.10;;;21.95;;
39032;SDS011;24794;51.982;5.878;2022-11-04T03:27:53;29.02;;;23.13;;
39032;SDS011;24794;51.982;5.878;2022-11-04T03:29:01;26.83;;;21.52;;
39032;SDS011;24794;51.982;5.878;2022-11-04T03:30:15;23.45;;;19.40;;
39032;SDS011;24794;51.982;5.878;2022-11-04T03:31:22;31.60;;;22.75;;
39032;SDS011;24794;51.982;5.878;2022-11-04T03:32:30;27.48;;;21.90;;
39032;SDS011;24794;51.982;5.878;2022-11-04T03:33:46;28.42;;;21.77;;
39032;SDS011;24794;51.982;5.878;2022-11-04T03:34:49;29.35;;;21.52;;
39032;SDS011;24794;51.982;5.878;2022-11-04T03:35:50;28.33;;;22.60;;
39032;SDS011;24794;51.982;5.878;2022-11-04T03:36:51;26.17;;;20.55;;
39032;SDS011;24794;51.982;5.878;2022-11-04T03:37:52;29.90;;;20.45;;
39032;SDS011;24794;51.982;5.878;2022-11-04T03:38:53;21.92;;;18.20;;
39032;SDS011;24794;51.982;5.878;2022-11-04T03:39:54;23.67;;;18.98;;
39032;SDS011;24794;51.982;5.878;2022-11-04T03:40:55;28.10;;;19.98;;
39032;SDS011;24794;51.982;5.878;2022-11-04T03:41:59;24.88;;;19.77;;
39032;SDS011;24794;51.982;5.878;2022-11-04T03:43:03;25.35;;;19.02;;
39032;SDS011;24794;51.982;5.878;2022-11-04T03:44:19;29.83;;;21.13;;
39032;SDS011;24794;51.982;5.878;2022-11-04T03:45:20;27.20;;;19.27;;
39032;SDS011;24794;51.982;5.878;2022-11-04T03:46:21;25.95;;;18.63;;
39032;SDS011;24794;51.982;5.878;2022-11-04T03:47:24;27.45;;;20.10;;
39032;SDS011;24794;51.982;5.878;2022-11-04T03:48:26;25.23;;;19.55;;
39032;SDS011;24794;51.982;5.878;2022-11-04T03:49:27;28.27;;;19.08;;
39032;SDS011;24794;51.982;5.878;2022-11-04T03:50:29;22.60;;;17.95;;
39032;SDS011;24794;51.982;5.878;2022-11-04T03:51:31;26.90;;;18.08;;
39032;SDS011;24794;51.982;5.878;2022-11-04T03:52:31;22.95;;;17.33;;
39032;SDS011;24794;51.982;5.878;2022-11-04T03:53:33;26.40;;;18.65;;
39032;SDS011;24794;51.982;5.878;2022-11-04T03:54:34;26.50;;;17.73;;
39032;SDS011;24794;51.982;5.878;2022-11-04T03:57:01;29.05;;;17.75;;
39032;SDS011;24794;51.982;5.878;2022-11-04T03:58:26;25.35;;;17.42;;
39032;SDS011;24794;51.982;5.878;2022-11-04T04:02:58;30.83;;;18.98;;
39032;SDS011;24794;51.982;5.878;2022-11-04T04:04:28;26.40;;;17.98;;
39032;SDS011;24794;51.982;5.878;2022-11-04T04:07:05;24.70;;;17.52;;
39032;SDS011;24794;51.982;5.878;2022-11-04T04:09:36;30.25;;;17.33;;
39032;SDS011;24794;51.982;5.878;2022-11-04T04:12:36;22.75;;;16.27;;
39032;SDS011;24794;51.982;5.878;2022-11-04T04:14:54;21.65;;;16.88;;
39032;SDS011;24794;51.982;5.878;2022-11-04T04:16:03;21.27;;;15.50;;
39032;SDS011;24794;51.982;5.878;2022-11-04T04:17:11;18.27;;;14.20;;
39032;SDS011;24794;51.982;5.878;2022-11-04T04:18:22;23.58;;;15.32;;
39032;SDS011;24794;51.982;5.878;2022-11-04T04:19:28;22.85;;;16.38;;
39032;SDS011;24794;51.982;5.878;2022-11-04T04:20:31;21.77;;;15.05;;
39032;SDS011;24794;51.982;5.878;2022-11-04T04:21:36;20.88;;;14.77;;
39032;SDS011;24794;51.982;5.878;2022-11-04T04:22:44;20.23;;;13.80;;
39032;SDS011;24794;51.982;5.878;2022-11-04T04:23:55;22.83;;;14.77;;
39032;SDS011;24794;51.982;5.878;2022-11-04T04:25:16;18.15;;;12.70;;
39032;SDS011;24794;51.982;5.878;2022-11-04T04:27:57;19.52;;;12.02;;
39032;SDS011;24794;51.982;5.878;2022-11-04T04:28:59;21.13;;;11.98;;
39032;SDS011;24794;51.982;5.878;2022-11-04T04:30:06;16.38;;;11.05;;
39032;SDS011;24794;51.982;5.878;2022-11-04T04:31:11;15.50;;;10.95;;
39032;SDS011;24794;51.982;5.878;2022-11-04T04:32:39;17.98;;;10.20;;
39032;SDS011;24794;51.982;5.878;2022-11-04T04:33:43;15.95;;;10.13;;
39032;SDS011;24794;51.982;5.878;2022-11-04T04:34:44;16.25;;;10.18;;
39032;SDS011;24794;51.982;5.878;2022-11-04T04:35:54;14.07;;;10.10;;
39032;SDS011;24794;51.982;5.878;2022-11-04T04:36:58;16.20;;;9.50;;
39032;SDS011;24794;51.982;5.878;2022-11-04T04:39:52;14.18;;;8.93;;
39032;SDS011;24794;51.982;5.878;2022-11-04T04:42:37;12.77;;;8.57;;
39032;SDS011;24794;51.982;5.878;2022-11-04T04:43:57;13.85;;;9.05;;
39032;SDS011;24794;51.982;5.878;2022-11-04T04:45:21;13.40;;;8.30;;
39032;SDS011;24794;51.982;5.878;2022-11-04T04:46:35;15.38;;;8.02;;
39032;SDS011;24794;51.982;5.878;2022-11-04T04:47:44;15.75;;;8.40;;
39032;SDS011;24794;51.982;5.878;2022-11-04T04:48:45;13.43;;;7.88;;
39032;SDS011;24794;51.982;5.878;2022-11-04T04:49:52;12.40;;;8.05;;
39032;SDS011;24794;51.982;5.878;2022-11-04T04:50:54;13.27;;;7.82;;
39032;SDS011;24794;51.982;5.878;2022-11-04T04:51:56;9.82;;;7.05;;
39032;SDS011;24794;51.982;5.878;2022-11-04T04:52:57;10.07;;;6.63;;
39032;SDS011;24794;51.982;5.878;2022-11-04T04:53:59;10.90;;;6.90;;
39032;SDS011;24794;51.982;5.878;2022-11-04T04:55:00;10.93;;;7.45;;
39032;SDS011;24794;51.982;5.878;2022-11-04T04:56:00;13.10;;;7.28;;
39032;SDS011;24794;51.982;5.878;2022-11-04T04:57:01;10.25;;;6.38;;
39032;SDS011;24794;51.982;5.878;2022-11-04T04:58:02;11.20;;;7.55;;
39032;SDS011;24794;51.982;5.878;2022-11-04T04:59:02;11.48;;;7.65;;
39032;SDS011;24794;51.982;5.878;2022-11-04T05:00:03;13.40;;;6.97;;
39032;SDS011;24794;51.982;5.878;2022-11-04T05:01:05;9.90;;;5.90;;
39032;SDS011;24794;51.982;5.878;2022-11-04T05:02:07;13.18;;;6.68;;
39032;SDS011;24794;51.982;5.878;2022-11-04T05:03:08;9.90;;;6.53;;
39032;SDS011;24794;51.982;5.878;2022-11-04T05:04:09;12.57;;;6.70;;
39032;SDS011;24794;51.982;5.878;2022-11-04T05:05:10;9.50;;;6.80;;
39032;SDS011;24794;51.982;5.878;2022-11-04T05:06:12;9.75;;;7.07;;
39032;SDS011;24794;51.982;5.878;2022-11-04T05:07:12;12.32;;;6.88;;
39032;SDS011;24794;51.982;5.878;2022-11-04T05:08:13;11.75;;;6.75;;
39032;SDS011;24794;51.982;5.878;2022-11-04T05:09:14;12.30;;;7.10;;
39032;SDS011;24794;51.982;5.878;2022-11-04T05:10:15;10.80;;;7.18;;
39032;SDS011;24794;51.982;5.878;2022-11-04T05:11:16;12.70;;;6.82;;
39032;SDS011;24794;51.982;5.878;2022-11-04T05:12:17;13.85;;;7.10;;
39032;SDS011;24794;51.982;5.878;2022-11-04T05:13:18;9.80;;;6.93;;
39032;SDS011;24794;51.982;5.878;2022-11-04T05:14:24;9.40;;;6.47;;
39032;SDS011;24794;51.982;5.878;2022-11-04T05:15:25;13.13;;;7.65;;
39032;SDS011;24794;51.982;5.878;2022-11-04T05:16:27;10.70;;;7.28;;
39032;SDS011;24794;51.982;5.878;2022-11-04T05:17:28;9.60;;;6.65;;
39032;SDS011;24794;51.982;5.878;2022-11-04T05:18:29;11.82;;;7.50;;
39032;SDS011;24794;51.982;5.878;2022-11-04T05:19:29;11.35;;;7.03;;
39032;SDS011;24794;51.982;5.878;2022-11-04T05:20:30;9.32;;;6.28;;
39032;SDS011;24794;51.982;5.878;2022-11-04T05:21:33;11.75;;;7.10;;
39032;SDS011;24794;51.982;5.878;2022-11-04T05:22:33;11.77;;;7.35;;
39032;SDS011;24794;51.982;5.878;2022-11-04T05:23:34;12.52;;;6.60;;
39032;SDS011;24794;51.982;5.878;2022-11-04T05:24:35;10.25;;;6.40;;
39032;SDS011;24794;51.982;5.878;2022-11-04T05:25:35;11.13;;;6.50;;
39032;SDS011;24794;51.982;5.878;2022-11-04T05:26:39;11.77;;;7.47;;
39032;SDS011;24794;51.982;5.878;2022-11-04T05:27:40;9.90;;;6.97;;
39032;SDS011;24794;51.982;5.878;2022-11-04T05:28:41;8.75;;;6.15;;
39032;SDS011;24794;51.982;5.878;2022-11-04T05:29:41;10.90;;;6.65;;
39032;SDS011;24794;51.982;5.878;2022-11-04T05:30:42;8.15;;;5.50;;
39032;SDS011;24794;51.982;5.878;2022-11-04T05:31:43;9.40;;;5.30;;
39032;SDS011;24794;51.982;5.878;2022-11-04T05:32:43;10.70;;;6.50;;
39032;SDS011;24794;51.982;5.878;2022-11-04T05:33:44;13.75;;;7.13;;
39032;SDS011;24794;51.982;5.878;2022-11-04T05:34:46;10.70;;;6.35;;
39032;SDS011;24794;51.982;5.878;2022-11-04T05:35:46;9.45;;;5.78;;
39032;SDS011;24794;51.982;5.878;2022-11-04T05:36:47;9.50;;;6.10;;
39032;SDS011;24794;51.982;5.878;2022-11-04T05:37:48;11.75;;;6.32;;
39032;SDS011;24794;51.982;5.878;2022-11-04T05:38:49;14.10;;;7.13;;
39032;SDS011;24794;51.982;5.878;2022-11-04T05:39:51;14.65;;;7.15;;
39032;SDS011;24794;51.982;5.878;2022-11-04T05:40:52;10.90;;;6.43;;
39032;SDS011;24794;51.982;5.878;2022-11-04T05:41:52;13.25;;;6.85;;
39032;SDS011;24794;51.982;5.878;2022-11-04T05:42:53;12.15;;;6.75;;
39032;SDS011;24794;51.982;5.878;2022-11-04T05:43:57;11.05;;;6.30;;
39032;SDS011;24794;51.982;5.878;2022-11-04T05:45:02;12.50;;;6.55;;
39032;SDS011;24794;51.982;5.878;2022-11-04T05:46:03;8.75;;;5.80;;
39032;SDS011;24794;51.982;5.878;2022-11-04T05:47:04;9.40;;;5.90;;
39032;SDS011;24794;51.982;5.878;2022-11-04T05:48:05;8.80;;;5.85;;
39032;SDS011;24794;51.982;5.878;2022-11-04T05:49:05;11.45;;;6.43;;
39032;SDS011;24794;51.982;5.878;2022-11-04T05:50:06;10.32;;;6.60;;
39032;SDS011;24794;51.982;5.878;2022-11-04T05:51:07;9.90;;;5.88;;
39032;SDS011;24794;51.982;5.878;2022-11-04T05:52:11;9.23;;;5.78;;
39032;SDS011;24794;51.982;5.878;2022-11-04T05:53:11;13.85;;;6.00;;
39032;SDS011;24794;51.982;5.878;2022-11-04T05:54:12;7.72;;;5.47;;
39032;SDS011;24794;51.982;5.878;2022-11-04T05:55:13;9.98;;;6.28;;
39032;SDS011;24794;51.982;5.878;2022-11-04T05:56:13;10.77;;;5.97;;
39032;SDS011;24794;51.982;5.878;2022-11-04T05:57:14;9.18;;;5.00;;
39032;SDS011;24794;51.982;5.878;2022-11-04T05:58:14;10.57;;;5.60;;
39032;SDS011;24794;51.982;5.878;2022-11-04T05:59:15;10.98;;;5.80;;
39032;SDS011;24794;51.982;5.878;2022-11-04T06:00:16;12.52;;;5.68;;
39032;SDS011;24794;51.982;5.878;2022-11-04T06:02:26;10.70;;;5.07;;
39032;SDS011;24794;51.982;5.878;2022-11-04T06:03:27;10.00;;;5.35;;
39032;SDS011;24794;51.982;5.878;2022-11-04T06:04:28;8.75;;;4.88;;
39032;SDS011;24794;51.982;5.878;2022-11-04T06:05:29;12.80;;;5.50;;
39032;SDS011;24794;51.982;5.878;2022-11-04T06:06:33;10.50;;;5.57;;
39032;SDS011;24794;51.982;5.878;2022-11-04T06:07:35;8.90;;;5.40;;
39032;SDS011;24794;51.982;5.878;2022-11-04T06:08:36;9.77;;;4.95;;
39032;SDS011;24794;51.982;5.878;2022-11-04T06:09:36;6.78;;;4.05;;
39032;SDS011;24794;51.982;5.878;2022-11-04T06:10:41;7.88;;;4.45;;
39032;SDS011;24794;51.982;5.878;2022-11-04T06:11:42;7.68;;;4.40;;
39032;SDS011;24794;51.982;5.878;2022-11-04T06:12:42;9.93;;;4.65;;
39032;SDS011;24794;51.982;5.878;2022-11-04T06:13:43;9.73;;;4.72;;
39032;SDS011;24794;51.982;5.878;2022-11-04T06:14:44;8.43;;;4.50;;
39032;SDS011;24794;51.982;5.878;2022-11-04T06:15:44;8.65;;;4.85;;
39032;SDS011;24794;51.982;5.878;2022-11-04T06:16:45;10.57;;;5.75;;
39032;SDS011;24794;51.982;5.878;2022-11-04T06:17:45;8.65;;;5.10;;
39032;SDS011;24794;51.982;5.878;2022-11-04T06:18:46;9.18;;;4.88;;
39032;SDS011;24794;51.982;5.878;2022-11-04T06:19:47;7.90;;;5.07;;
39032;SDS011;24794;51.982;5.878;2022-11-04T06:20:48;8.90;;;5.10;;
39032;SDS011;24794;51.982;5.878;2022-11-04T06:21:48;9.65;;;5.07;;
39032;SDS011;24794;51.982;5.878;2022-11-04T06:22:49;9.35;;;4.97;;
39032;SDS011;24794;51.982;5.878;2022-11-04T06:23:50;7.80;;;4.63;;
39032;SDS011;24794;51.982;5.878;2022-11-04T06:24:51;9.98;;;5.00;;
39032;SDS011;24794;51.982;5.878;2022-11-04T06:25:52;7.72;;;4.28;;
39032;SDS011;24794;51.982;5.878;2022-11-04T06:26:53;6.80;;;4.15;;
39032;SDS011;24794;51.982;5.878;2022-11-04T06:27:53;7.85;;;4.32;;
39032;SDS011;24794;51.982;5.878;2022-11-04T06:28:54;9.63;;;4.82;;
39032;SDS011;24794;51.982;5.878;2022-11-04T06:29:55;12.02;;;4.47;;
39032;SDS011;24794;51.982;5.878;2022-11-04T06:30:59;8.75;;;4.18;;
39032;SDS011;24794;51.982;5.878;2022-11-04T06:32:01;7.93;;;4.38;;
39032;SDS011;24794;51.982;5.878;2022-11-04T06:33:02;7.32;;;4.15;;
39032;SDS011;24794;51.982;5.878;2022-11-04T06:34:03;7.38;;;4.30;;
39032;SDS011;24794;51.982;5.878;2022-11-04T06:35:03;7.15;;;4.55;;
39032;SDS011;24794;51.982;5.878;2022-11-04T06:36:05;7.82;;;4.47;;
39032;SDS011;24794;51.982;5.878;2022-11-04T06:37:07;11.02;;;4.45;;
39032;SDS011;24794;51.982;5.878;2022-11-04T06:38:08;10.02;;;4.47;;
39032;SDS011;24794;51.982;5.878;2022-11-04T06:39:09;10.52;;;4.82;;
39032;SDS011;24794;51.982;5.878;2022-11-04T06:40:10;10.02;;;4.68;;
39032;SDS011;24794;51.982;5.878;2022-11-04T06:41:11;10.20;;;4.35;;
39032;SDS011;24794;51.982;5.878;2022-11-04T06:42:14;8.40;;;4.45;;
39032;SDS011;24794;51.982;5.878;2022-11-04T06:43:14;11.13;;;4.60;;
39032;SDS011;24794;51.982;5.878;2022-11-04T06:44:15;11.55;;;4.70;;
39032;SDS011;24794;51.982;5.878;2022-11-04T06:45:16;7.07;;;4.40;;
39032;SDS011;24794;51.982;5.878;2022-11-04T06:46:23;8.32;;;4.45;;
39032;SDS011;24794;51.982;5.878;2022-11-04T06:47:25;10.02;;;4.75;;
39032;SDS011;24794;51.982;5.878;2022-11-04T06:48:26;9.50;;;4.03;;
39032;SDS011;24794;51.982;5.878;2022-11-04T06:49:29;7.22;;;3.92;;
39032;SDS011;24794;51.982;5.878;2022-11-04T06:50:30;8.13;;;3.67;;
39032;SDS011;24794;51.982;5.878;2022-11-04T06:51:30;11.23;;;3.40;;
39032;SDS011;24794;51.982;5.878;2022-11-04T06:52:32;9.00;;;3.70;;
39032;SDS011;24794;51.982;5.878;2022-11-04T06:53:33;8.35;;;3.55;;
39032;SDS011;24794;51.982;5.878;2022-11-04T06:54:33;8.48;;;3.28;;
39032;SDS011;24794;51.982;5.878;2022-11-04T06:55:34;7.50;;;3.22;;
39032;SDS011;24794;51.982;5.878;2022-11-04T06:56:34;7.63;;;3.33;;
39032;SDS011;24794;51.982;5.878;2022-11-04T06:57:35;6.68;;;3.30;;
39032;SDS011;24794;51.982;5.878;2022-11-04T06:58:36;6.50;;;3.03;;
39032;SDS011;24794;51.982;5.878;2022-11-04T06:59:36;6.65;;;3.15;;
39032;SDS011;24794;51.982;5.878;2022-11-04T07:00:37;7.65;;;3.75;;
39032;SDS011;24794;51.982;5.878;2022-11-04T07:01:37;8.90;;;3.33;;
39032;SDS011;24794;51.982;5.878;2022-11-04T07:02:38;7.90;;;3.53;;